sensor_id;sensor_type;location;lat;lon;timestamp;pressure;altitude;pressure_sealevel;temperature;humidity
69784;BME280;57054;51.978;4.498;2023-06-22T00:01:28;102008.88;;;18.44;81.16
69784;BME280;57054;51.978;4.498;2023-06-22T00:03:54;102001.09;;;18.40;81.28
69784;BME280;57054;51.978;4.498;2023-06-22T00:06:19;101998.63;;;18.37;81.32
69784;BME280;57054;51.978;4.498;2023-06-22T00:08:44;102000.47;;;18.35;81.39
69784;BME280;57054;51.978;4.498;2023-06-22T00:11:10;101993.56;;;18.33;81.42
69784;BME280;57054;51.978;4.498;2023-06-22T00:13:35;101991.94;;;18.30;81.60
69784;BME280;57054;51.978;4.498;2023-06-22T00:16:01;101988.41;;;18.30;81.75
69784;BME280;57054;51.978;4.498;2023-06-22T00:18:26;101990.38;;;18.26;81.72
69784;BME280;57054;51.978;4.498;2023-06-22T00:20:54;101992.28;;;18.24;82.04
69784;BME280;57054;51.978;4.498;2023-06-22T00:23:23;101984.50;;;18.21;81.99
69784;BME280;57054;51.978;4.498;2023-06-22T00:25:49;101989.00;;;18.19;82.06
69784;BME280;57054;51.978;4.498;2023-06-22T00:28:14;101989.13;;;18.17;82.10
69784;BME280;57054;51.978;4.498;2023-06-22T00:30:40;101986.53;;;18.16;82.22
69784;BME280;57054;51.978;4.498;2023-06-22T00:33:05;101975.25;;;18.12;82.44
69784;BME280;57054;51.978;4.498;2023-06-22T00:35:32;101977.03;;;18.12;82.56
69784;BME280;57054;51.978;4.498;2023-06-22T00:37:59;101974.47;;;18.10;82.56
69784;BME280;57054;51.978;4.498;2023-06-22T00:40:31;101971.16;;;18.07;82.68
69784;BME280;57054;51.978;4.498;2023-06-22T00:42:56;101971.22;;;18.05;82.69
69784;BME280;57054;51.978;4.498;2023-06-22T00:45:23;101971.38;;;18.02;82.77
69784;BME280;57054;51.978;4.498;2023-06-22T00:47:50;101967.03;;;18.01;82.76
69784;BME280;57054;51.978;4.498;2023-06-22T00:50:20;101965.31;;;18.00;82.92
69784;BME280;57054;51.978;4.498;2023-06-22T00:52:57;101960.94;;;17.99;82.97
69784;BME280;57054;51.978;4.498;2023-06-22T00:55:24;101964.53;;;17.98;82.95
69784;BME280;57054;51.978;4.498;2023-06-22T00:57:51;101956.66;;;17.96;83.05
69784;BME280;57054;51.978;4.498;2023-06-22T01:00:21;101964.69;;;17.95;83.24
69784;BME280;57054;51.978;4.498;2023-06-22T01:05:24;101957.84;;;17.91;83.34
69784;BME280;57054;51.978;4.498;2023-06-22T01:10:34;101952.78;;;17.86;83.64
69784;BME280;57054;51.978;4.498;2023-06-22T01:13:07;101954.59;;;17.86;83.48
69784;BME280;57054;51.978;4.498;2023-06-22T01:15:46;101952.88;;;17.84;83.72
69784;BME280;57054;51.978;4.498;2023-06-22T01:18:18;101961.75;;;17.83;83.64
69784;BME280;57054;51.978;4.498;2023-06-22T01:20:45;101948.56;;;17.82;83.67
69784;BME280;57054;51.978;4.498;2023-06-22T01:26:08;101951.47;;;17.77;84.03
69784;BME280;57054;51.978;4.498;2023-06-22T01:28:45;101950.59;;;17.77;83.99
69784;BME280;57054;51.978;4.498;2023-06-22T01:31:14;101949.69;;;17.78;83.74
69784;BME280;57054;51.978;4.498;2023-06-22T01:33:43;101948.84;;;17.77;83.98
69784;BME280;57054;51.978;4.498;2023-06-22T01:36:09;101940.97;;;17.76;84.06
69784;BME280;57054;51.978;4.498;2023-06-22T01:38:37;101941.03;;;17.74;84.23
69784;BME280;57054;51.978;4.498;2023-06-22T01:41:03;101947.34;;;17.72;84.11
69784;BME280;57054;51.978;4.498;2023-06-22T01:43:30;101961.53;;;17.71;84.13
69784;BME280;57054;51.978;4.498;2023-06-22T01:45:56;101961.63;;;17.69;84.25
69784;BME280;57054;51.978;4.498;2023-06-22T01:48:22;101954.59;;;17.68;84.47
69784;BME280;57054;51.978;4.498;2023-06-22T01:50:49;101959.03;;;17.68;84.47
69784;BME280;57054;51.978;4.498;2023-06-22T01:53:14;101946.66;;;17.68;84.51
69784;BME280;57054;51.978;4.498;2023-06-22T01:55:40;101950.19;;;17.69;84.37
69784;BME280;57054;51.978;4.498;2023-06-22T01:58:05;101947.44;;;17.70;84.48
69784;BME280;57054;51.978;4.498;2023-06-22T02:00:37;101957.25;;;17.68;84.56
69784;BME280;57054;51.978;4.498;2023-06-22T02:03:22;101947.59;;;17.67;84.68
69784;BME280;57054;51.978;4.498;2023-06-22T02:06:08;101947.69;;;17.65;84.87
69784;BME280;57054;51.978;4.498;2023-06-22T02:08:41;101946.91;;;17.63;84.63
69784;BME280;57054;51.978;4.498;2023-06-22T02:11:09;101954.00;;;17.63;84.88
69784;BME280;57054;51.978;4.498;2023-06-22T02:13:36;101946.22;;;17.60;84.90
69784;BME280;57054;51.978;4.498;2023-06-22T02:16:03;101943.72;;;17.57;85.06
69784;BME280;57054;51.978;4.498;2023-06-22T02:18:28;101941.13;;;17.55;85.08
69784;BME280;57054;51.978;4.498;2023-06-22T02:20:54;101932.34;;;17.55;85.21
69784;BME280;57054;51.978;4.498;2023-06-22T02:23:19;101931.56;;;17.53;84.99
69784;BME280;57054;51.978;4.498;2023-06-22T02:25:45;101936.03;;;17.52;85.27
69784;BME280;57054;51.978;4.498;2023-06-22T02:28:10;101935.25;;;17.50;85.25
69784;BME280;57054;51.978;4.498;2023-06-22T02:30:35;101927.47;;;17.47;85.39
69784;BME280;57054;51.978;4.498;2023-06-22T02:33:01;101926.69;;;17.45;85.09
69784;BME280;57054;51.978;4.498;2023-06-22T02:35:27;101936.44;;;17.44;85.16
69784;BME280;57054;51.978;4.498;2023-06-22T02:38:01;101927.69;;;17.42;85.33
69784;BME280;57054;51.978;4.498;2023-06-22T02:40:28;101927.78;;;17.41;85.35
69784;BME280;57054;51.978;4.498;2023-06-22T02:42:54;101927.78;;;17.41;85.40
69784;BME280;57054;51.978;4.498;2023-06-22T02:45:19;101925.22;;;17.39;85.21
69784;BME280;57054;51.978;4.498;2023-06-22T02:47:45;101924.34;;;17.39;85.49
69784;BME280;57054;51.978;4.498;2023-06-22T02:50:10;101924.44;;;17.37;85.54
69784;BME280;57054;51.978;4.498;2023-06-22T02:52:36;101924.53;;;17.36;85.58
69784;BME280;57054;51.978;4.498;2023-06-22T02:55:01;101924.59;;;17.34;85.49
69784;BME280;57054;51.978;4.498;2023-06-22T02:57:27;101927.31;;;17.33;85.78
69784;BME280;57054;51.978;4.498;2023-06-22T02:59:52;101930.03;;;17.31;85.84
69784;BME280;57054;51.978;4.498;2023-06-22T03:02:18;101933.66;;;17.30;85.49
69784;BME280;57054;51.978;4.498;2023-06-22T03:04:48;101935.41;;;17.30;85.81
69784;BME280;57054;51.978;4.498;2023-06-22T03:07:15;101943.44;;;17.28;85.70
69784;BME280;57054;51.978;4.498;2023-06-22T03:09:40;101947.03;;;17.27;85.88
69784;BME280;57054;51.978;4.498;2023-06-22T03:12:07;101945.31;;;17.26;85.91
69784;BME280;57054;51.978;4.498;2023-06-22T03:14:33;101940.09;;;17.24;86.35
69784;BME280;57054;51.978;4.498;2023-06-22T03:16:58;101922.50;;;17.23;86.02
69784;BME280;57054;51.978;4.498;2023-06-22T03:19:28;101922.44;;;17.25;86.20
69784;BME280;57054;51.978;4.498;2023-06-22T03:21:55;101912.53;;;17.29;86.11
69784;BME280;57054;51.978;4.498;2023-06-22T03:24:20;101912.53;;;17.29;86.25
69784;BME280;57054;51.978;4.498;2023-06-22T03:26:46;101911.66;;;17.28;86.40
69784;BME280;57054;51.978;4.498;2023-06-22T03:29:12;101920.41;;;17.30;86.57
69784;BME280;57054;51.978;4.498;2023-06-22T03:31:37;101915.88;;;17.32;87.18
69784;BME280;57054;51.978;4.498;2023-06-22T03:34:03;101911.50;;;17.31;87.47
69784;BME280;57054;51.978;4.498;2023-06-22T03:36:28;101911.50;;;17.31;87.23
69784;BME280;57054;51.978;4.498;2023-06-22T03:38:54;101903.66;;;17.30;87.13
69784;BME280;57054;51.978;4.498;2023-06-22T03:41:19;101897.50;;;17.29;87.16
69784;BME280;57054;51.978;4.498;2023-06-22T03:43:45;101901.88;;;17.30;87.10
69784;BME280;57054;51.978;4.498;2023-06-22T03:46:10;101900.00;;;17.32;87.76
69784;BME280;57054;51.978;4.498;2023-06-22T03:48:36;101893.81;;;17.32;87.98
69784;BME280;57054;51.978;4.498;2023-06-22T03:51:02;101891.09;;;17.33;88.28
69784;BME280;57054;51.978;4.498;2023-06-22T03:53:28;101890.25;;;17.33;88.25
69784;BME280;57054;51.978;4.498;2023-06-22T03:55:54;101892.84;;;17.34;88.35
69784;BME280;57054;51.978;4.498;2023-06-22T03:58:20;101891.97;;;17.34;88.58
69784;BME280;57054;51.978;4.498;2023-06-22T04:00:47;101891.88;;;17.35;88.75
69784;BME280;57054;51.978;4.498;2023-06-22T04:03:13;101887.53;;;17.34;88.95
69784;BME280;57054;51.978;4.498;2023-06-22T04:05:39;101890.97;;;17.36;89.01
69784;BME280;57054;51.978;4.498;2023-06-22T04:08:05;101893.69;;;17.35;89.14
69784;BME280;57054;51.978;4.498;2023-06-22T04:10:31;101898.13;;;17.34;89.24
69784;BME280;57054;51.978;4.498;2023-06-22T04:12:56;101895.47;;;17.34;89.18
69784;BME280;57054;51.978;4.498;2023-06-22T04:15:22;101884.81;;;17.36;89.21
69784;BME280;57054;51.978;4.498;2023-06-22T04:17:47;101886.50;;;17.37;88.97
69784;BME280;57054;51.978;4.498;2023-06-22T04:20:13;101885.66;;;17.36;88.87
69784;BME280;57054;51.978;4.498;2023-06-22T04:22:38;101888.16;;;17.39;88.98
69784;BME280;57054;51.978;4.498;2023-06-22T04:25:05;101892.56;;;17.39;89.27
69784;BME280;57054;51.978;4.498;2023-06-22T04:27:32;101889.84;;;17.40;89.36
69784;BME280;57054;51.978;4.498;2023-06-22T04:29:58;101893.38;;;17.41;89.09
69784;BME280;57054;51.978;4.498;2023-06-22T04:32:25;101904.03;;;17.39;89.11
69784;BME280;57054;51.978;4.498;2023-06-22T04:34:50;101903.97;;;17.41;89.26
69784;BME280;57054;51.978;4.498;2023-06-22T04:37:17;101902.16;;;17.41;89.44
69784;BME280;57054;51.978;4.498;2023-06-22T04:39:42;101903.84;;;17.42;89.46
69784;BME280;57054;51.978;4.498;2023-06-22T04:42:08;101901.22;;;17.42;89.75
69784;BME280;57054;51.978;4.498;2023-06-22T04:44:33;101906.44;;;17.44;89.58
69784;BME280;57054;51.978;4.498;2023-06-22T04:47:01;101905.59;;;17.43;89.51
69784;BME280;57054;51.978;4.498;2023-06-22T04:49:29;101895.84;;;17.44;89.50
69784;BME280;57054;51.978;4.498;2023-06-22T04:52:08;101899.19;;;17.48;89.61
69784;BME280;57054;51.978;4.498;2023-06-22T04:54:36;101909.63;;;17.51;89.99
69784;BME280;57054;51.978;4.498;2023-06-22T04:57:03;101909.63;;;17.51;91.17
69784;BME280;57054;51.978;4.498;2023-06-22T04:59:30;101905.16;;;17.51;92.11
69784;BME280;57054;51.978;4.498;2023-06-22T05:04:22;101903.38;;;17.52;93.12
69784;BME280;57054;51.978;4.498;2023-06-22T05:06:48;101905.09;;;17.53;92.99
69784;BME280;57054;51.978;4.498;2023-06-22T05:09:14;101907.66;;;17.54;92.77
69784;BME280;57054;51.978;4.498;2023-06-22T05:11:40;101914.59;;;17.57;92.67
69784;BME280;57054;51.978;4.498;2023-06-22T05:14:05;101904.88;;;17.57;93.59
69784;BME280;57054;51.978;4.498;2023-06-22T05:16:30;101903.00;;;17.59;93.98
69784;BME280;57054;51.978;4.498;2023-06-22T05:18:56;101906.47;;;17.60;93.68
69784;BME280;57054;51.978;4.498;2023-06-22T05:21:23;101903.69;;;17.63;94.39
69784;BME280;57054;51.978;4.498;2023-06-22T05:23:50;101900.16;;;17.62;94.61
69784;BME280;57054;51.978;4.498;2023-06-22T05:26:15;101896.50;;;17.65;94.58
69784;BME280;57054;51.978;4.498;2023-06-22T05:28:41;101894.69;;;17.65;95.08
69784;BME280;57054;51.978;4.498;2023-06-22T05:31:06;101898.13;;;17.68;95.13
69784;BME280;57054;51.978;4.498;2023-06-22T05:33:31;101890.09;;;17.69;94.83
69784;BME280;57054;51.978;4.498;2023-06-22T05:35:57;101901.38;;;17.73;94.68
69784;BME280;57054;51.978;4.498;2023-06-22T05:38:22;101898.56;;;17.76;94.46
69784;BME280;57054;51.978;4.498;2023-06-22T05:40:48;101900.19;;;17.78;94.93
69784;BME280;57054;51.978;4.498;2023-06-22T05:43:13;101898.31;;;17.80;94.72
69784;BME280;57054;51.978;4.498;2023-06-22T05:45:38;101903.53;;;17.82;94.53
69784;BME280;57054;51.978;4.498;2023-06-22T05:48:04;101904.38;;;17.82;94.76
69784;BME280;57054;51.978;4.498;2023-06-22T05:50:30;101905.19;;;17.84;94.36
69784;BME280;57054;51.978;4.498;2023-06-22T05:52:55;101904.25;;;17.86;94.17
69784;BME280;57054;51.978;4.498;2023-06-22T05:55:20;101908.63;;;17.87;94.18
69784;BME280;57054;51.978;4.498;2023-06-22T05:57:46;101904.16;;;17.87;94.76
69784;BME280;57054;51.978;4.498;2023-06-22T06:00:11;101903.22;;;17.88;94.64
69784;BME280;57054;51.978;4.498;2023-06-22T06:02:37;101901.38;;;17.90;94.85
69784;BME280;57054;51.978;4.498;2023-06-22T06:05:09;101902.13;;;17.92;94.51
69784;BME280;57054;51.978;4.498;2023-06-22T06:07:35;101908.28;;;17.93;94.43
69784;BME280;57054;51.978;4.498;2023-06-22T06:10:00;101907.34;;;17.94;94.44
69784;BME280;57054;51.978;4.498;2023-06-22T06:12:26;101906.31;;;17.96;94.67
69784;BME280;57054;51.978;4.498;2023-06-22T06:14:51;101900.09;;;17.97;95.08
69784;BME280;57054;51.978;4.498;2023-06-22T06:17:18;101898.22;;;17.99;95.00
69784;BME280;57054;51.978;4.498;2023-06-22T06:19:43;101893.66;;;18.01;95.04
69784;BME280;57054;51.978;4.498;2023-06-22T06:22:09;101897.09;;;18.03;95.20
69784;BME280;57054;51.978;4.498;2023-06-22T06:24:34;101903.16;;;18.06;95.39
69784;BME280;57054;51.978;4.498;2023-06-22T06:26:59;101899.50;;;18.08;95.25
69784;BME280;57054;51.978;4.498;2023-06-22T06:29:25;101896.72;;;18.10;94.92
69784;BME280;57054;51.978;4.498;2023-06-22T06:31:50;101892.19;;;18.12;95.31
69784;BME280;57054;51.978;4.498;2023-06-22T06:34:16;101891.19;;;18.14;95.01
69784;BME280;57054;51.978;4.498;2023-06-22T06:36:41;101886.72;;;18.15;95.14
69784;BME280;57054;51.978;4.498;2023-06-22T06:39:07;101886.56;;;18.18;94.96
69784;BME280;57054;51.978;4.498;2023-06-22T06:41:33;101890.91;;;18.19;95.12
69784;BME280;57054;51.978;4.498;2023-06-22T06:43:59;101887.25;;;18.21;94.81
69784;BME280;57054;51.978;4.498;2023-06-22T06:46:25;101890.66;;;18.23;94.56
69784;BME280;57054;51.978;4.498;2023-06-22T06:48:51;101886.97;;;18.26;94.25
69784;BME280;57054;51.978;4.498;2023-06-22T06:51:16;101885.97;;;18.29;94.38
69784;BME280;57054;51.978;4.498;2023-06-22T06:53:41;101880.47;;;18.32;93.91
69784;BME280;57054;51.978;4.498;2023-06-22T06:56:07;101879.53;;;18.33;93.71
69784;BME280;57054;51.978;4.498;2023-06-22T06:58:34;101878.50;;;18.35;93.13
69784;BME280;57054;51.978;4.498;2023-06-22T07:00:59;101870.47;;;18.37;92.99
69784;BME280;57054;51.978;4.498;2023-06-22T07:03:24;101865.91;;;18.39;92.88
69784;BME280;57054;51.978;4.498;2023-06-22T07:05:50;101872.69;;;18.45;92.58
69784;BME280;57054;51.978;4.498;2023-06-22T07:08:15;101876.88;;;18.49;92.58
69784;BME280;57054;51.978;4.498;2023-06-22T07:10:41;101881.13;;;18.51;92.41
69784;BME280;57054;51.978;4.498;2023-06-22T07:13:06;101872.84;;;18.57;92.26
69784;BME280;57054;51.978;4.498;2023-06-22T07:15:31;101862.91;;;18.61;92.28
69784;BME280;57054;51.978;4.498;2023-06-22T07:17:57;101862.72;;;18.64;91.32
69784;BME280;57054;51.978;4.498;2023-06-22T07:20:22;101858.06;;;18.68;90.76
69784;BME280;57054;51.978;4.498;2023-06-22T07:22:47;101857.81;;;18.72;89.32
69784;BME280;57054;51.978;4.498;2023-06-22T07:25:13;101857.53;;;18.77;88.11
69784;BME280;57054;51.978;4.498;2023-06-22T07:27:56;101852.84;;;18.82;87.38
69784;BME280;57054;51.978;4.498;2023-06-22T07:30:21;101854.28;;;18.88;86.87
69784;BME280;57054;51.978;4.498;2023-06-22T07:32:47;101854.19;;;18.89;85.73
69784;BME280;57054;51.978;4.498;2023-06-22T07:35:12;101850.31;;;18.95;84.62
69784;BME280;57054;51.978;4.498;2023-06-22T07:37:38;101848.25;;;19.00;84.54
69784;BME280;57054;51.978;4.498;2023-06-22T07:40:03;101847.97;;;19.05;83.67
69784;BME280;57054;51.978;4.498;2023-06-22T07:42:31;101835.25;;;19.10;82.28
69784;BME280;57054;51.978;4.498;2023-06-22T07:44:58;101834.13;;;19.14;81.08
69784;BME280;57054;51.978;4.498;2023-06-22T07:47:23;101831.28;;;19.17;81.53
69784;BME280;57054;51.978;4.498;2023-06-22T07:49:59;101832.81;;;19.21;81.99
69784;BME280;57054;51.978;4.498;2023-06-22T07:52:26;101832.50;;;19.26;81.40
69784;BME280;57054;51.978;4.498;2023-06-22T07:54:51;101829.59;;;19.30;78.85
69784;BME280;57054;51.978;4.498;2023-06-22T07:57:17;101828.44;;;19.34;78.05
69784;BME280;57054;51.978;4.498;2023-06-22T07:59:42;101829.94;;;19.38;77.65
69784;BME280;57054;51.978;4.498;2023-06-22T08:02:08;101830.72;;;19.41;77.92
69784;BME280;57054;51.978;4.498;2023-06-22T08:04:34;101829.59;;;19.45;78.65
69784;BME280;57054;51.978;4.498;2023-06-22T08:07:00;101820.06;;;19.55;79.35
69784;BME280;57054;51.978;4.498;2023-06-22T08:09:28;101817.78;;;19.63;79.63
69784;BME280;57054;51.978;4.498;2023-06-22T08:11:54;101812.16;;;19.68;79.06
69784;BME280;57054;51.978;4.498;2023-06-22T08:14:20;101817.22;;;19.72;78.55
69784;BME280;57054;51.978;4.498;2023-06-22T08:16:48;101811.75;;;19.75;77.69
69784;BME280;57054;51.978;4.498;2023-06-22T08:19:14;101816.75;;;19.80;77.83
69784;BME280;57054;51.978;4.498;2023-06-22T08:21:39;101819.22;;;19.83;76.59
69784;BME280;57054;51.978;4.498;2023-06-22T08:24:05;101815.41;;;19.87;74.22
69784;BME280;57054;51.978;4.498;2023-06-22T08:26:30;101813.31;;;19.92;74.34
69784;BME280;57054;51.978;4.498;2023-06-22T08:28:55;101809.38;;;19.98;75.23
69784;BME280;57054;51.978;4.498;2023-06-22T08:31:21;101815.34;;;20.02;75.06
69784;BME280;57054;51.978;4.498;2023-06-22T08:33:46;101808.97;;;20.04;75.61
69784;BME280;57054;51.978;4.498;2023-06-22T08:36:12;101813.34;;;20.05;75.22
69784;BME280;57054;51.978;4.498;2023-06-22T08:38:38;101809.63;;;20.08;74.48
69784;BME280;57054;51.978;4.498;2023-06-22T08:41:04;101801.66;;;20.08;73.45
69784;BME280;57054;51.978;4.498;2023-06-22T08:43:29;101802.31;;;20.11;73.62
69784;BME280;57054;51.978;4.498;2023-06-22T08:45:54;101796.38;;;20.21;72.20
69784;BME280;57054;51.978;4.498;2023-06-22T08:48:20;101803.09;;;20.26;72.30
69784;BME280;57054;51.978;4.498;2023-06-22T08:50:45;101809.84;;;20.32;71.65
69784;BME280;57054;51.978;4.498;2023-06-22T08:53:11;101809.63;;;20.35;71.59
69784;BME280;57054;51.978;4.498;2023-06-22T08:55:36;101806.66;;;20.40;72.38
69784;BME280;57054;51.978;4.498;2023-06-22T08:58:01;101796.44;;;20.46;72.19
69784;BME280;57054;51.978;4.498;2023-06-22T09:00:28;101802.31;;;20.51;72.91
69784;BME280;57054;51.978;4.498;2023-06-22T09:02:54;101803.69;;;20.57;73.49
69784;BME280;57054;51.978;4.498;2023-06-22T09:05:24;101791.25;;;20.58;73.46
69784;BME280;57054;51.978;4.498;2023-06-22T09:07:51;101793.06;;;20.57;73.85
69784;BME280;57054;51.978;4.498;2023-06-22T09:10:16;101792.22;;;20.57;74.05
69784;BME280;57054;51.978;4.498;2023-06-22T09:12:42;101789.28;;;20.61;75.32
69784;BME280;57054;51.978;4.498;2023-06-22T09:15:08;101787.91;;;20.68;75.13
69784;BME280;57054;51.978;4.498;2023-06-22T09:17:33;101786.63;;;20.74;73.15
69784;BME280;57054;51.978;4.498;2023-06-22T09:20:00;101791.63;;;20.79;74.34
69784;BME280;57054;51.978;4.498;2023-06-22T09:22:26;101784.81;;;20.87;75.75
69784;BME280;57054;51.978;4.498;2023-06-22T09:24:55;101789.84;;;20.92;75.40
69784;BME280;57054;51.978;4.498;2023-06-22T09:27:21;101775.44;;;20.95;76.05
69784;BME280;57054;51.978;4.498;2023-06-22T09:29:47;101783.22;;;20.98;74.47
69784;BME280;57054;51.978;4.498;2023-06-22T09:32:12;101785.00;;;20.97;73.76
69784;BME280;57054;51.978;4.498;2023-06-22T09:34:38;101786.72;;;20.98;71.44
69784;BME280;57054;51.978;4.498;2023-06-22T09:37:03;101781.59;;;20.95;71.55
69784;BME280;57054;51.978;4.498;2023-06-22T09:39:29;101778.22;;;20.93;72.02
69784;BME280;57054;51.978;4.498;2023-06-22T09:41:54;101772.03;;;20.93;72.63
69784;BME280;57054;51.978;4.498;2023-06-22T09:44:20;101771.94;;;20.94;73.22
69784;BME280;57054;51.978;4.498;2023-06-22T09:46:45;101774.25;;;20.99;74.29
69784;BME280;57054;51.978;4.498;2023-06-22T09:49:10;101763.31;;;21.03;73.43
69784;BME280;57054;51.978;4.498;2023-06-22T09:51:38;101762.47;;;21.03;73.93
69784;BME280;57054;51.978;4.498;2023-06-22T09:54:03;101758.81;;;21.04;74.37
69784;BME280;57054;51.978;4.498;2023-06-22T09:56:29;101762.22;;;21.06;74.04
69784;BME280;57054;51.978;4.498;2023-06-22T09:58:55;101759.25;;;21.11;74.17
69784;BME280;57054;51.978;4.498;2023-06-22T10:01:21;101761.81;;;21.12;74.21
69784;BME280;57054;51.978;4.498;2023-06-22T10:03:46;101757.31;;;21.13;75.19
69784;BME280;57054;51.978;4.498;2023-06-22T10:06:12;101766.91;;;21.15;70.75
69784;BME280;57054;51.978;4.498;2023-06-22T10:08:37;101767.78;;;21.16;70.89
69784;BME280;57054;51.978;4.498;2023-06-22T10:11:03;101773.84;;;21.18;71.22
69784;BME280;57054;51.978;4.498;2023-06-22T10:13:29;101764.75;;;21.20;72.60
69784;BME280;57054;51.978;4.498;2023-06-22T10:15:54;101779.44;;;21.26;73.64
69784;BME280;57054;51.978;4.498;2023-06-22T10:18:20;101773.06;;;21.28;73.39
69784;BME280;57054;51.978;4.498;2023-06-22T10:20:48;101778.41;;;21.28;72.80
69784;BME280;57054;51.978;4.498;2023-06-22T10:23:16;101771.56;;;21.24;72.28
69784;BME280;57054;51.978;4.498;2023-06-22T10:25:41;101773.50;;;21.22;71.98
69784;BME280;57054;51.978;4.498;2023-06-22T10:28:07;101768.41;;;21.19;72.36
69784;BME280;57054;51.978;4.498;2023-06-22T10:30:32;101764.13;;;21.17;72.37
69784;BME280;57054;51.978;4.498;2023-06-22T10:32:58;101767.78;;;21.16;72.09
69784;BME280;57054;51.978;4.498;2023-06-22T10:35:23;101765.09;;;21.16;72.44
69784;BME280;57054;51.978;4.498;2023-06-22T10:37:48;101775.88;;;21.14;71.16
69784;BME280;57054;51.978;4.498;2023-06-22T10:40:15;101765.22;;;21.14;71.48
69784;BME280;57054;51.978;4.498;2023-06-22T10:42:41;101770.53;;;21.14;70.99
69784;BME280;57054;51.978;4.498;2023-06-22T10:45:08;101771.38;;;21.15;71.53
69784;BME280;57054;51.978;4.498;2023-06-22T10:47:34;101767.78;;;21.16;71.05
69784;BME280;57054;51.978;4.498;2023-06-22T10:49:59;101776.50;;;21.18;71.52
69784;BME280;57054;51.978;4.498;2023-06-22T10:52:24;101778.91;;;21.21;70.91
69784;BME280;57054;51.978;4.498;2023-06-22T10:54:50;101776.91;;;21.24;70.32
69784;BME280;57054;51.978;4.498;2023-06-22T10:57:15;101768.91;;;21.24;71.31
69784;BME280;57054;51.978;4.498;2023-06-22T10:59:41;101775.94;;;21.25;70.99
69784;BME280;57054;51.978;4.498;2023-06-22T11:02:06;101774.88;;;21.28;71.64
69784;BME280;57054;51.978;4.498;2023-06-22T11:04:31;101768.59;;;21.29;72.06
69784;BME280;57054;51.978;4.498;2023-06-22T11:06:57;101777.22;;;21.33;72.06
69784;BME280;57054;51.978;4.498;2023-06-22T11:09:22;101776.13;;;21.35;71.46
69784;BME280;57054;51.978;4.498;2023-06-22T11:11:49;101781.25;;;21.38;69.81
69784;BME280;57054;51.978;4.498;2023-06-22T11:14:15;101777.63;;;21.39;68.75
69784;BME280;57054;51.978;4.498;2023-06-22T11:16:41;101776.66;;;21.40;68.94
69784;BME280;57054;51.978;4.498;2023-06-22T11:19:06;101780.31;;;21.39;68.97
69784;BME280;57054;51.978;4.498;2023-06-22T11:21:32;101774.97;;;21.39;68.82
69784;BME280;57054;51.978;4.498;2023-06-22T11:24:00;101774.09;;;21.39;68.66
69784;BME280;57054;51.978;4.498;2023-06-22T11:26:26;101774.97;;;21.39;68.43
69784;BME280;57054;51.978;4.498;2023-06-22T11:28:54;101767.72;;;21.41;69.90
69784;BME280;57054;51.978;4.498;2023-06-22T11:31:19;101771.97;;;21.44;70.97
69784;BME280;57054;51.978;4.498;2023-06-22T11:33:45;101765.25;;;21.51;70.95
69784;BME280;57054;51.978;4.498;2023-06-22T11:36:12;101760.34;;;21.58;71.46
69784;BME280;57054;51.978;4.498;2023-06-22T11:38:37;101760.09;;;21.61;71.00
69784;BME280;57054;51.978;4.498;2023-06-22T11:41:05;101761.72;;;21.63;69.51
69784;BME280;57054;51.978;4.498;2023-06-22T11:43:31;101746.66;;;21.62;69.82
69784;BME280;57054;51.978;4.498;2023-06-22T11:45:56;101746.56;;;21.64;70.81
69784;BME280;57054;51.978;4.498;2023-06-22T11:48:24;101745.72;;;21.63;71.66
69784;BME280;57054;51.978;4.498;2023-06-22T11:50:49;101733.44;;;21.61;71.33
69784;BME280;57054;51.978;4.498;2023-06-22T11:53:15;101734.53;;;21.58;71.61
69784;BME280;57054;51.978;4.498;2023-06-22T11:55:42;101727.50;;;21.57;72.03
69784;BME280;57054;51.978;4.498;2023-06-22T11:58:08;101722.16;;;21.57;71.98
69784;BME280;57054;51.978;4.498;2023-06-22T12:00:33;101721.44;;;21.55;71.77
69784;BME280;57054;51.978;4.498;2023-06-22T12:02:59;101717.06;;;21.54;72.00
69784;BME280;57054;51.978;4.498;2023-06-22T12:05:24;101709.19;;;21.53;71.74
69784;BME280;57054;51.978;4.498;2023-06-22T12:07:50;101702.16;;;21.52;72.09
69784;BME280;57054;51.978;4.498;2023-06-22T12:10:18;101710.13;;;21.52;72.38
69784;BME280;57054;51.978;4.498;2023-06-22T12:12:43;101701.19;;;21.53;73.63
69784;BME280;57054;51.978;4.498;2023-06-22T12:15:09;101704.69;;;21.53;74.51
69784;BME280;57054;51.978;4.498;2023-06-22T12:17:35;101696.72;;;21.53;74.52
69784;BME280;57054;51.978;4.498;2023-06-22T12:20:00;101700.22;;;21.54;74.75
69784;BME280;57054;51.978;4.498;2023-06-22T12:22:27;101704.59;;;21.55;74.78
69784;BME280;57054;51.978;4.498;2023-06-22T12:24:52;101697.53;;;21.54;74.31
69784;BME280;57054;51.978;4.498;2023-06-22T12:27:17;101694.03;;;21.53;74.10
69784;BME280;57054;51.978;4.498;2023-06-22T12:29:45;101691.38;;;21.53;73.62
69784;BME280;57054;51.978;4.498;2023-06-22T12:32:10;101689.56;;;21.54;74.07
69784;BME280;57054;51.978;4.498;2023-06-22T12:34:38;101682.66;;;21.51;75.21
69784;BME280;57054;51.978;4.498;2023-06-22T12:37:04;101686.03;;;21.53;76.65
69784;BME280;57054;51.978;4.498;2023-06-22T12:39:31;101686.88;;;21.54;76.99
69784;BME280;57054;51.978;4.498;2023-06-22T12:41:56;101685.09;;;21.54;77.21
69784;BME280;57054;51.978;4.498;2023-06-22T12:44:22;101681.56;;;21.54;77.04
69784;BME280;57054;51.978;4.498;2023-06-22T12:46:47;101681.56;;;21.54;77.51
69784;BME280;57054;51.978;4.498;2023-06-22T12:49:12;101686.03;;;21.53;77.65
69784;BME280;57054;51.978;4.498;2023-06-22T12:51:42;101681.44;;;21.55;79.21
69784;BME280;57054;51.978;4.498;2023-06-22T12:54:07;101690.31;;;21.56;78.92
69784;BME280;57054;51.978;4.498;2023-06-22T12:56:33;101682.44;;;21.54;79.29